sensor_id;sensor_type;location;lat;lon;timestamp;P1;durP1;ratioP1;P2;durP2;ratioP2
13797;SDS011;6970;51.340;3.240;2023-06-10T00:03:38;9.30;;;8.50;;
13797;SDS011;6970;51.340;3.240;2023-06-10T00:06:06;8.90;;;8.20;;
13797;SDS011;6970;51.340;3.240;2023-06-10T00:08:33;10.23;;;9.23;;
13797;SDS011;6970;51.340;3.240;2023-06-10T00:11:02;9.53;;;8.87;;
13797;SDS011;6970;51.340;3.240;2023-06-10T00:13:32;8.67;;;8.03;;
13797;SDS011;6970;51.340;3.240;2023-06-10T00:18:33;9.87;;;9.10;;
13797;SDS011;6970;51.340;3.240;2023-06-10T00:21:05;10.43;;;9.37;;
13797;SDS011;6970;51.340;3.240;2023-06-10T00:23:32;9.37;;;8.63;;
13797;SDS011;6970;51.340;3.240;2023-06-10T00:31:07;10.00;;;9.30;;
13797;SDS011;6970;51.340;3.240;2023-06-10T00:33:34;9.90;;;9.00;;
13797;SDS011;6970;51.340;3.240;2023-06-10T00:36:03;8.83;;;8.20;;
13797;SDS011;6970;51.340;3.240;2023-06-10T00:38:33;9.60;;;8.90;;
13797;SDS011;6970;51.340;3.240;2023-06-10T00:41:02;10.20;;;9.30;;
13797;SDS011;6970;51.340;3.240;2023-06-10T00:43:31;10.33;;;9.53;;
13797;SDS011;6970;51.340;3.240;2023-06-10T00:45:59;10.53;;;9.60;;
13797;SDS011;6970;51.340;3.240;2023-06-10T00:48:28;10.17;;;9.47;;
13797;SDS011;6970;51.340;3.240;2023-06-10T00:50:55;10.73;;;9.83;;
13797;SDS011;6970;51.340;3.240;2023-06-10T00:53:23;10.80;;;9.93;;
13797;SDS011;6970;51.340;3.240;2023-06-10T00:55:51;10.90;;;9.80;;
13797;SDS011;6970;51.340;3.240;2023-06-10T00:58:20;10.47;;;9.57;;
13797;SDS011;6970;51.340;3.240;2023-06-10T01:00:49;10.87;;;9.83;;
13797;SDS011;6970;51.340;3.240;2023-06-10T01:03:23;10.30;;;9.40;;
13797;SDS011;6970;51.340;3.240;2023-06-10T01:08:59;10.67;;;9.87;;
13797;SDS011;6970;51.340;3.240;2023-06-10T01:15:00;10.13;;;9.27;;
13797;SDS011;6970;51.340;3.240;2023-06-10T01:17:27;10.53;;;9.73;;
13797;SDS011;6970;51.340;3.240;2023-06-10T01:22:31;10.30;;;9.60;;
13797;SDS011;6970;51.340;3.240;2023-06-10T01:24:58;11.33;;;10.43;;
13797;SDS011;6970;51.340;3.240;2023-06-10T01:27:29;11.37;;;10.47;;
13797;SDS011;6970;51.340;3.240;2023-06-10T01:30:03;11.43;;;10.33;;
13797;SDS011;6970;51.340;3.240;2023-06-10T01:32:40;11.87;;;10.87;;
13797;SDS011;6970;51.340;3.240;2023-06-10T01:37:45;11.20;;;10.40;;
13797;SDS011;6970;51.340;3.240;2023-06-10T01:40:14;12.70;;;11.63;;
13797;SDS011;6970;51.340;3.240;2023-06-10T01:45:40;12.10;;;11.07;;
13797;SDS011;6970;51.340;3.240;2023-06-10T01:48:08;11.83;;;10.93;;
13797;SDS011;6970;51.340;3.240;2023-06-10T01:50:36;12.37;;;11.20;;
13797;SDS011;6970;51.340;3.240;2023-06-10T01:53:06;12.30;;;11.10;;
13797;SDS011;6970;51.340;3.240;2023-06-10T01:55:36;12.23;;;11.17;;
13797;SDS011;6970;51.340;3.240;2023-06-10T01:58:04;12.60;;;11.60;;
13797;SDS011;6970;51.340;3.240;2023-06-10T02:00:31;11.67;;;10.73;;
13797;SDS011;6970;51.340;3.240;2023-06-10T02:02:58;12.70;;;11.50;;
13797;SDS011;6970;51.340;3.240;2023-06-10T02:05:28;13.00;;;11.90;;
13797;SDS011;6970;51.340;3.240;2023-06-10T02:07:57;13.03;;;12.00;;
13797;SDS011;6970;51.340;3.240;2023-06-10T02:10:27;12.80;;;11.60;;
13797;SDS011;6970;51.340;3.240;2023-06-10T02:12:55;13.23;;;12.13;;
13797;SDS011;6970;51.340;3.240;2023-06-10T02:15:22;13.40;;;12.17;;
13797;SDS011;6970;51.340;3.240;2023-06-10T02:20:23;12.70;;;11.60;;
13797;SDS011;6970;51.340;3.240;2023-06-10T02:22:56;12.97;;;11.87;;
13797;SDS011;6970;51.340;3.240;2023-06-10T02:25:23;12.17;;;11.00;;
13797;SDS011;6970;51.340;3.240;2023-06-10T02:27:52;13.40;;;11.87;;
13797;SDS011;6970;51.340;3.240;2023-06-10T02:30:19;12.97;;;11.90;;
13797;SDS011;6970;51.340;3.240;2023-06-10T02:32:48;12.70;;;11.70;;
13797;SDS011;6970;51.340;3.240;2023-06-10T02:35:17;12.37;;;11.47;;
13797;SDS011;6970;51.340;3.240;2023-06-10T02:37:44;12.83;;;11.83;;
13797;SDS011;6970;51.340;3.240;2023-06-10T02:40:12;12.53;;;11.43;;
13797;SDS011;6970;51.340;3.240;2023-06-10T02:42:39;12.63;;;11.47;;
13797;SDS011;6970;51.340;3.240;2023-06-10T02:45:07;18.37;;;12.30;;
13797;SDS011;6970;51.340;3.240;2023-06-10T02:47:37;13.20;;;12.10;;
13797;SDS011;6970;51.340;3.240;2023-06-10T02:50:06;13.50;;;12.57;;
13797;SDS011;6970;51.340;3.240;2023-06-10T02:52:34;13.30;;;12.23;;
13797;SDS011;6970;51.340;3.240;2023-06-10T02:55:04;14.20;;;12.90;;
13797;SDS011;6970;51.340;3.240;2023-06-10T02:57:33;13.77;;;12.87;;
13797;SDS011;6970;51.340;3.240;2023-06-10T03:00:01;14.87;;;13.40;;
13797;SDS011;6970;51.340;3.240;2023-06-10T03:02:32;13.57;;;12.57;;
13797;SDS011;6970;51.340;3.240;2023-06-10T03:07:29;14.53;;;13.20;;
13797;SDS011;6970;51.340;3.240;2023-06-10T03:09:58;13.97;;;12.63;;
13797;SDS011;6970;51.340;3.240;2023-06-10T03:12:25;13.93;;;12.83;;
13797;SDS011;6970;51.340;3.240;2023-06-10T03:17:24;14.23;;;12.93;;
13797;SDS011;6970;51.340;3.240;2023-06-10T03:19:52;14.47;;;13.13;;
13797;SDS011;6970;51.340;3.240;2023-06-10T03:22:19;14.90;;;13.50;;
13797;SDS011;6970;51.340;3.240;2023-06-10T03:24:46;14.90;;;13.80;;
13797;SDS011;6970;51.340;3.240;2023-06-10T03:27:16;14.60;;;13.37;;
13797;SDS011;6970;51.340;3.240;2023-06-10T03:29:44;13.87;;;12.73;;
13797;SDS011;6970;51.340;3.240;2023-06-10T03:32:11;14.10;;;12.90;;
13797;SDS011;6970;51.340;3.240;2023-06-10T03:34:40;14.03;;;12.93;;
13797;SDS011;6970;51.340;3.240;2023-06-10T03:37:10;14.30;;;13.13;;
13797;SDS011;6970;51.340;3.240;2023-06-10T03:42:11;13.93;;;12.83;;
13797;SDS011;6970;51.340;3.240;2023-06-10T03:44:39;14.93;;;13.63;;
13797;SDS011;6970;51.340;3.240;2023-06-10T03:47:06;13.10;;;11.90;;
13797;SDS011;6970;51.340;3.240;2023-06-10T03:52:11;14.27;;;13.13;;
13797;SDS011;6970;51.340;3.240;2023-06-10T03:57:08;14.10;;;13.10;;
13797;SDS011;6970;51.340;3.240;2023-06-10T04:02:05;14.50;;;13.40;;
13797;SDS011;6970;51.340;3.240;2023-06-10T04:04:34;14.37;;;13.13;;
13797;SDS011;6970;51.340;3.240;2023-06-10T04:07:03;14.20;;;12.93;;
13797;SDS011;6970;51.340;3.240;2023-06-10T04:09:34;14.13;;;12.67;;
13797;SDS011;6970;51.340;3.240;2023-06-10T04:12:05;13.77;;;12.67;;
13797;SDS011;6970;51.340;3.240;2023-06-10T04:14:36;13.47;;;12.47;;
13797;SDS011;6970;51.340;3.240;2023-06-10T04:17:04;14.50;;;13.30;;
13797;SDS011;6970;51.340;3.240;2023-06-10T04:19:37;14.27;;;13.03;;
13797;SDS011;6970;51.340;3.240;2023-06-10T04:22:04;18.27;;;14.43;;
13797;SDS011;6970;51.340;3.240;2023-06-10T04:24:31;14.33;;;13.13;;
13797;SDS011;6970;51.340;3.240;2023-06-10T04:26:58;14.27;;;13.17;;
13797;SDS011;6970;51.340;3.240;2023-06-10T04:29:25;15.40;;;13.90;;
13797;SDS011;6970;51.340;3.240;2023-06-10T04:31:52;13.47;;;12.47;;
13797;SDS011;6970;51.340;3.240;2023-06-10T04:34:19;13.90;;;12.90;;
13797;SDS011;6970;51.340;3.240;2023-06-10T04:36:47;14.00;;;12.80;;
13797;SDS011;6970;51.340;3.240;2023-06-10T04:41:49;14.57;;;13.37;;
13797;SDS011;6970;51.340;3.240;2023-06-10T04:44:17;15.50;;;14.20;;
13797;SDS011;6970;51.340;3.240;2023-06-10T04:46:47;15.20;;;13.87;;
13797;SDS011;6970;51.340;3.240;2023-06-10T04:49:17;15.17;;;13.93;;
13797;SDS011;6970;51.340;3.240;2023-06-10T04:51:46;15.47;;;14.30;;
13797;SDS011;6970;51.340;3.240;2023-06-10T04:54:17;13.97;;;12.87;;
13797;SDS011;6970;51.340;3.240;2023-06-10T04:56:45;15.40;;;14.20;;
13797;SDS011;6970;51.340;3.240;2023-06-10T04:59:16;13.80;;;12.77;;
13797;SDS011;6970;51.340;3.240;2023-06-10T05:01:46;15.37;;;14.17;;
13797;SDS011;6970;51.340;3.240;2023-06-10T05:04:13;14.23;;;13.23;;
13797;SDS011;6970;51.340;3.240;2023-06-10T05:06:42;14.23;;;13.07;;
13797;SDS011;6970;51.340;3.240;2023-06-10T05:09:13;15.70;;;14.17;;
13797;SDS011;6970;51.340;3.240;2023-06-10T05:11:40;15.63;;;14.40;;
13797;SDS011;6970;51.340;3.240;2023-06-10T05:14:08;15.80;;;14.40;;
13797;SDS011;6970;51.340;3.240;2023-06-10T05:16:38;16.57;;;15.10;;
13797;SDS011;6970;51.340;3.240;2023-06-10T05:19:06;15.43;;;14.17;;
13797;SDS011;6970;51.340;3.240;2023-06-10T05:21:36;14.90;;;13.63;;
13797;SDS011;6970;51.340;3.240;2023-06-10T05:24:03;15.47;;;14.33;;
13797;SDS011;6970;51.340;3.240;2023-06-10T05:26:30;15.50;;;14.30;;
13797;SDS011;6970;51.340;3.240;2023-06-10T05:29:05;15.37;;;13.83;;
13797;SDS011;6970;51.340;3.240;2023-06-10T05:31:36;16.70;;;14.97;;
13797;SDS011;6970;51.340;3.240;2023-06-10T05:34:03;16.23;;;14.70;;
13797;SDS011;6970;51.340;3.240;2023-06-10T05:36:31;15.67;;;14.30;;
13797;SDS011;6970;51.340;3.240;2023-06-10T05:38:59;16.50;;;15.10;;
13797;SDS011;6970;51.340;3.240;2023-06-10T05:43:59;16.00;;;14.70;;
13797;SDS011;6970;51.340;3.240;2023-06-10T05:46:26;16.20;;;14.80;;
13797;SDS011;6970;51.340;3.240;2023-06-10T05:48:56;16.00;;;14.63;;
13797;SDS011;6970;51.340;3.240;2023-06-10T05:51:23;16.43;;;14.87;;
13797;SDS011;6970;51.340;3.240;2023-06-10T05:53:54;17.80;;;16.10;;
13797;SDS011;6970;51.340;3.240;2023-06-10T05:56:21;18.00;;;16.40;;
13797;SDS011;6970;51.340;3.240;2023-06-10T05:58:49;16.20;;;14.70;;
13797;SDS011;6970;51.340;3.240;2023-06-10T06:03:50;16.73;;;15.33;;
13797;SDS011;6970;51.340;3.240;2023-06-10T06:06:18;16.93;;;15.33;;
13797;SDS011;6970;51.340;3.240;2023-06-10T06:08:50;16.67;;;14.97;;
13797;SDS011;6970;51.340;3.240;2023-06-10T06:11:19;15.73;;;14.33;;
13797;SDS011;6970;51.340;3.240;2023-06-10T06:16:20;16.43;;;15.03;;
13797;SDS011;6970;51.340;3.240;2023-06-10T06:18:53;15.50;;;14.17;;
13797;SDS011;6970;51.340;3.240;2023-06-10T06:21:21;17.17;;;15.53;;
13797;SDS011;6970;51.340;3.240;2023-06-10T06:23:48;17.63;;;16.03;;
13797;SDS011;6970;51.340;3.240;2023-06-10T06:26:16;16.57;;;15.07;;
13797;SDS011;6970;51.340;3.240;2023-06-10T06:28:43;16.10;;;14.70;;
13797;SDS011;6970;51.340;3.240;2023-06-10T06:33:41;16.57;;;15.17;;
13797;SDS011;6970;51.340;3.240;2023-06-10T06:36:11;16.00;;;14.70;;
13797;SDS011;6970;51.340;3.240;2023-06-10T06:43:41;15.87;;;14.23;;
13797;SDS011;6970;51.340;3.240;2023-06-10T06:46:12;16.07;;;14.70;;
13797;SDS011;6970;51.340;3.240;2023-06-10T06:51:13;15.20;;;13.97;;
13797;SDS011;6970;51.340;3.240;2023-06-10T06:53:47;15.57;;;14.37;;
13797;SDS011;6970;51.340;3.240;2023-06-10T06:58:48;15.17;;;14.03;;
13797;SDS011;6970;51.340;3.240;2023-06-10T07:01:18;15.27;;;14.03;;
13797;SDS011;6970;51.340;3.240;2023-06-10T07:06:16;14.23;;;13.03;;
13797;SDS011;6970;51.340;3.240;2023-06-10T07:08:43;13.77;;;12.50;;
13797;SDS011;6970;51.340;3.240;2023-06-10T07:11:13;13.73;;;12.73;;
13797;SDS011;6970;51.340;3.240;2023-06-10T07:13:46;14.53;;;13.40;;
13797;SDS011;6970;51.340;3.240;2023-06-10T07:16:14;15.23;;;13.90;;
13797;SDS011;6970;51.340;3.240;2023-06-10T07:21:14;14.23;;;12.93;;
13797;SDS011;6970;51.340;3.240;2023-06-10T07:23:45;13.47;;;12.37;;
13797;SDS011;6970;51.340;3.240;2023-06-10T07:26:12;15.30;;;13.90;;
13797;SDS011;6970;51.340;3.240;2023-06-10T07:28:40;15.17;;;12.93;;
13797;SDS011;6970;51.340;3.240;2023-06-10T07:31:08;13.10;;;12.10;;
13797;SDS011;6970;51.340;3.240;2023-06-10T07:33:35;15.07;;;13.00;;
13797;SDS011;6970;51.340;3.240;2023-06-10T07:36:04;13.20;;;12.20;;
13797;SDS011;6970;51.340;3.240;2023-06-10T07:38:33;13.80;;;12.63;;
13797;SDS011;6970;51.340;3.240;2023-06-10T07:41:00;14.43;;;13.13;;
13797;SDS011;6970;51.340;3.240;2023-06-10T07:43:29;13.63;;;12.40;;
13797;SDS011;6970;51.340;3.240;2023-06-10T07:45:57;13.50;;;12.53;;
13797;SDS011;6970;51.340;3.240;2023-06-10T07:48:29;13.60;;;12.50;;
13797;SDS011;6970;51.340;3.240;2023-06-10T07:53:26;13.63;;;12.30;;
13797;SDS011;6970;51.340;3.240;2023-06-10T07:58:25;14.50;;;13.10;;
13797;SDS011;6970;51.340;3.240;2023-06-10T08:00:53;13.13;;;11.93;;
13797;SDS011;6970;51.340;3.240;2023-06-10T08:03:20;12.93;;;11.83;;
13797;SDS011;6970;51.340;3.240;2023-06-10T08:05:48;13.15;;;12.15;;
13797;SDS011;6970;51.340;3.240;2023-06-10T08:08:16;13.23;;;12.02;;
13797;SDS011;6970;51.340;3.240;2023-06-10T08:10:44;13.98;;;12.85;;
13797;SDS011;6970;51.340;3.240;2023-06-10T08:13:14;12.87;;;11.73;;
13797;SDS011;6970;51.340;3.240;2023-06-10T08:15:42;12.32;;;11.43;;
13797;SDS011;6970;51.340;3.240;2023-06-10T08:18:11;12.75;;;11.85;;
13797;SDS011;6970;51.340;3.240;2023-06-10T08:20:39;12.60;;;11.50;;
13797;SDS011;6970;51.340;3.240;2023-06-10T08:23:08;11.52;;;10.60;;
13797;SDS011;6970;51.340;3.240;2023-06-10T08:28:06;11.23;;;10.38;;
13797;SDS011;6970;51.340;3.240;2023-06-10T08:35:37;12.20;;;11.32;;
13797;SDS011;6970;51.340;3.240;2023-06-10T08:38:05;10.43;;;9.60;;
13797;SDS011;6970;51.340;3.240;2023-06-10T08:43:38;9.35;;;8.43;;
13797;SDS011;6970;51.340;3.240;2023-06-10T08:46:05;11.90;;;10.82;;
13797;SDS011;6970;51.340;3.240;2023-06-10T08:48:38;10.35;;;9.45;;
13797;SDS011;6970;51.340;3.240;2023-06-10T08:51:09;10.65;;;9.85;;
13797;SDS011;6970;51.340;3.240;2023-06-10T08:53:42;11.57;;;10.38;;
13797;SDS011;6970;51.340;3.240;2023-06-10T08:56:25;10.73;;;9.68;;
13797;SDS011;6970;51.340;3.240;2023-06-10T08:59:01;10.93;;;10.13;;
13797;SDS011;6970;51.340;3.240;2023-06-10T09:01:32;11.55;;;9.00;;
13797;SDS011;6970;51.340;3.240;2023-06-10T09:04:02;10.50;;;9.70;;
13797;SDS011;6970;51.340;3.240;2023-06-10T09:06:33;10.27;;;9.30;;
13797;SDS011;6970;51.340;3.240;2023-06-10T09:09:04;12.25;;;8.82;;
13797;SDS011;6970;51.340;3.240;2023-06-10T09:14:04;9.70;;;8.90;;
13797;SDS011;6970;51.340;3.240;2023-06-10T09:16:33;9.25;;;8.65;;
13797;SDS011;6970;51.340;3.240;2023-06-10T09:19:00;9.63;;;8.80;;
13797;SDS011;6970;51.340;3.240;2023-06-10T09:24:05;9.57;;;8.77;;
13797;SDS011;6970;51.340;3.240;2023-06-10T09:29:06;9.30;;;8.60;;
13797;SDS011;6970;51.340;3.240;2023-06-10T09:31:38;8.77;;;7.95;;
13797;SDS011;6970;51.340;3.240;2023-06-10T09:34:11;9.30;;;8.50;;
13797;SDS011;6970;51.340;3.240;2023-06-10T09:39:17;8.73;;;8.02;;
13797;SDS011;6970;51.340;3.240;2023-06-10T09:41:47;7.97;;;7.38;;
13797;SDS011;6970;51.340;3.240;2023-06-10T09:44:16;8.38;;;7.78;;
13797;SDS011;6970;51.340;3.240;2023-06-10T09:46:49;8.35;;;7.55;;
13797;SDS011;6970;51.340;3.240;2023-06-10T09:51:56;9.07;;;7.70;;
13797;SDS011;6970;51.340;3.240;2023-06-10T09:54:25;9.95;;;8.80;;
13797;SDS011;6970;51.340;3.240;2023-06-10T09:59:33;8.55;;;7.75;;
13797;SDS011;6970;51.340;3.240;2023-06-10T10:02:04;8.82;;;8.07;;
13797;SDS011;6970;51.340;3.240;2023-06-10T10:04:35;10.32;;;9.20;;
13797;SDS011;6970;51.340;3.240;2023-06-10T10:07:03;8.73;;;7.93;;
13797;SDS011;6970;51.340;3.240;2023-06-10T10:09:40;6.90;;;6.40;;
13797;SDS011;6970;51.340;3.240;2023-06-10T10:12:12;7.07;;;6.47;;
13797;SDS011;6970;51.340;3.240;2023-06-10T10:14:43;7.20;;;5.85;;
13797;SDS011;6970;51.340;3.240;2023-06-10T10:17:16;7.60;;;6.80;;
13797;SDS011;6970;51.340;3.240;2023-06-10T10:19:58;6.57;;;5.97;;
13797;SDS011;6970;51.340;3.240;2023-06-10T10:22:30;6.70;;;6.18;;
13797;SDS011;6970;51.340;3.240;2023-06-10T10:25:06;8.57;;;6.20;;
13797;SDS011;6970;51.340;3.240;2023-06-10T10:30:15;7.63;;;5.70;;
13797;SDS011;6970;51.340;3.240;2023-06-10T10:35:54;7.70;;;5.85;;
13797;SDS011;6970;51.340;3.240;2023-06-10T10:38:28;7.28;;;6.57;;
13797;SDS011;6970;51.340;3.240;2023-06-10T10:40:55;6.82;;;6.22;;
13797;SDS011;6970;51.340;3.240;2023-06-10T10:48:38;7.20;;;6.50;;
13797;SDS011;6970;51.340;3.240;2023-06-10T10:51:08;6.63;;;6.20;;
13797;SDS011;6970;51.340;3.240;2023-06-10T10:53:39;7.95;;;6.00;;
13797;SDS011;6970;51.340;3.240;2023-06-10T10:56:16;7.00;;;6.22;;
13797;SDS011;6970;51.340;3.240;2023-06-10T10:59:05;6.22;;;5.82;;
13797;SDS011;6970;51.340;3.240;2023-06-10T11:01:42;12.52;;;6.60;;
13797;SDS011;6970;51.340;3.240;2023-06-10T11:04:17;6.93;;;6.45;;
13797;SDS011;6970;51.340;3.240;2023-06-10T11:06:58;6.50;;;5.88;;
13797;SDS011;6970;51.340;3.240;2023-06-10T11:09:34;8.48;;;6.90;;
13797;SDS011;6970;51.340;3.240;2023-06-10T11:14:33;6.35;;;5.82;;
13797;SDS011;6970;51.340;3.240;2023-06-10T11:17:04;5.72;;;5.32;;
13797;SDS011;6970;51.340;3.240;2023-06-10T11:24:51;5.93;;;5.53;;
13797;SDS011;6970;51.340;3.240;2023-06-10T11:27:19;6.35;;;5.85;;
13797;SDS011;6970;51.340;3.240;2023-06-10T11:32:31;8.95;;;6.60;;
13797;SDS011;6970;51.340;3.240;2023-06-10T11:35:04;5.80;;;5.30;;
13797;SDS011;6970;51.340;3.240;2023-06-10T11:37:37;7.70;;;7.20;;
13797;SDS011;6970;51.340;3.240;2023-06-10T11:40:05;7.65;;;6.97;;
13797;SDS011;6970;51.340;3.240;2023-06-10T11:45:14;9.70;;;7.35;;
13797;SDS011;6970;51.340;3.240;2023-06-10T11:48:06;8.00;;;7.22;;
13797;SDS011;6970;51.340;3.240;2023-06-10T11:50:32;8.13;;;7.40;;
13797;SDS011;6970;51.340;3.240;2023-06-10T11:53:03;8.23;;;7.15;;
13797;SDS011;6970;51.340;3.240;2023-06-10T11:58:17;7.82;;;7.05;;
13797;SDS011;6970;51.340;3.240;2023-06-10T12:00:51;7.53;;;6.55;;
13797;SDS011;6970;51.340;3.240;2023-06-10T12:03:27;7.45;;;6.75;;
13797;SDS011;6970;51.340;3.240;2023-06-10T12:06:10;7.57;;;6.88;;
13797;SDS011;6970;51.340;3.240;2023-06-10T12:08:41;7.68;;;6.75;;
13797;SDS011;6970;51.340;3.240;2023-06-10T12:11:09;7.63;;;6.35;;
13797;SDS011;6970;51.340;3.240;2023-06-10T12:16:17;7.95;;;7.00;;
13797;SDS011;6970;51.340;3.240;2023-06-10T12:18:47;7.03;;;6.53;;
13797;SDS011;6970;51.340;3.240;2023-06-10T12:21:17;7.93;;;7.00;;
13797;SDS011;6970;51.340;3.240;2023-06-10T12:24:00;8.55;;;7.30;;
13797;SDS011;6970;51.340;3.240;2023-06-10T12:32:05;8.35;;;7.60;;
13797;SDS011;6970;51.340;3.240;2023-06-10T12:34:36;8.98;;;7.63;;
13797;SDS011;6970;51.340;3.240;2023-06-10T12:37:10;8.80;;;7.90;;
13797;SDS011;6970;51.340;3.240;2023-06-10T12:39:50;9.38;;;8.55;;
13797;SDS011;6970;51.340;3.240;2023-06-10T12:42:22;9.02;;;8.27;;
13797;SDS011;6970;51.340;3.240;2023-06-10T12:44:53;8.85;;;8.00;;
13797;SDS011;6970;51.340;3.240;2023-06-10T12:47:29;8.57;;;7.38;;
13797;SDS011;6970;51.340;3.240;2023-06-10T12:50:05;8.40;;;7.60;;
13797;SDS011;6970;51.340;3.240;2023-06-10T12:52:32;8.82;;;8.07;;
13797;SDS011;6970;51.340;3.240;2023-06-10T12:54:59;8.60;;;7.93;;
13797;SDS011;6970;51.340;3.240;2023-06-10T12:57:27;8.82;;;7.40;;
13797;SDS011;6970;51.340;3.240;2023-06-10T12:59:54;8.52;;;7.75;;
13797;SDS011;6970;51.340;3.240;2023-06-10T13:02:27;7.78;;;7.05;;
13797;SDS011;6970;51.340;3.240;2023-06-10T13:04:54;11.20;;;8.25;;
13797;SDS011;6970;51.340;3.240;2023-06-10T13:07:21;8.13;;;7.38;;
13797;SDS011;6970;51.340;3.240;2023-06-10T13:09:49;10.20;;;7.25;;
13797;SDS011;6970;51.340;3.240;2023-06-10T13:12:17;9.50;;;7.13;;
13797;SDS011;6970;51.340;3.240;2023-06-10T13:15:03;8.02;;;7.22;;
13797;SDS011;6970;51.340;3.240;2023-06-10T13:17:32;8.60;;;7.20;;
13797;SDS011;6970;51.340;3.240;2023-06-10T13:20:04;7.43;;;6.80;;
13797;SDS011;6970;51.340;3.240;2023-06-10T13:22:32;9.48;;;7.13;;
13797;SDS011;6970;51.340;3.240;2023-06-10T13:25:02;9.20;;;6.38;;
13797;SDS011;6970;51.340;3.240;2023-06-10T13:27:33;12.43;;;6.90;;
13797;SDS011;6970;51.340;3.240;2023-06-10T13:32:35;6.80;;;5.82;;
13797;SDS011;6970;51.340;3.240;2023-06-10T13:35:06;7.80;;;6.03;;
13797;SDS011;6970;51.340;3.240;2023-06-10T13:40:06;6.80;;;6.07;;
13797;SDS011;6970;51.340;3.240;2023-06-10T13:42:39;6.10;;;5.50;;
13797;SDS011;6970;51.340;3.240;2023-06-10T13:45:06;6.35;;;5.85;;
13797;SDS011;6970;51.340;3.240;2023-06-10T13:47:38;7.35;;;6.65;;
13797;SDS011;6970;51.340;3.240;2023-06-10T13:50:11;6.93;;;6.22;;
13797;SDS011;6970;51.340;3.240;2023-06-10T13:52:45;6.97;;;6.25;;
13797;SDS011;6970;51.340;3.240;2023-06-10T13:55:15;7.70;;;6.95;;
13797;SDS011;6970;51.340;3.240;2023-06-10T13:57:43;10.00;;;7.00;;
13797;SDS011;6970;51.340;3.240;2023-06-10T14:02:40;8.65;;;6.70;;
13797;SDS011;6970;51.340;3.240;2023-06-10T14:05:08;8.25;;;6.97;;
13797;SDS011;6970;51.340;3.240;2023-06-10T14:07:36;7.97;;;7.28;;
13797;SDS011;6970;51.340;3.240;2023-06-10T14:10:05;7.20;;;6.60;;
13797;SDS011;6970;51.340;3.240;2023-06-10T14:12:32;7.35;;;6.68;;
13797;SDS011;6970;51.340;3.240;2023-06-10T14:17:30;7.57;;;6.97;;
13797;SDS011;6970;51.340;3.240;2023-06-10T14:19:57;7.50;;;6.90;;
13797;SDS011;6970;51.340;3.240;2023-06-10T14:22:25;7.55;;;6.95;;
13797;SDS011;6970;51.340;3.240;2023-06-10T14:24:52;9.57;;;8.77;;
13797;SDS011;6970;51.340;3.240;2023-06-10T14:27:25;9.68;;;8.88;;
13797;SDS011;6970;51.340;3.240;2023-06-10T14:32:22;7.88;;;7.18;;
13797;SDS011;6970;51.340;3.240;2023-06-10T14:34:50;8.63;;;7.82;;
13797;SDS011;6970;51.340;3.240;2023-06-10T14:37:19;9.15;;;8.25;;
13797;SDS011;6970;51.340;3.240;2023-06-10T14:39:47;9.40;;;8.52;;
13797;SDS011;6970;51.340;3.240;2023-06-10T14:42:17;10.02;;;8.60;;
13797;SDS011;6970;51.340;3.240;2023-06-10T14:47:17;8.68;;;7.95;;
13797;SDS011;6970;51.340;3.240;2023-06-10T14:49:47;11.20;;;9.10;;
13797;SDS011;6970;51.340;3.240;2023-06-10T14:52:15;8.63;;;7.93;;
13797;SDS011;6970;51.340;3.240;2023-06-10T14:54:46;8.45;;;7.65;;
13797;SDS011;6970;51.340;3.240;2023-06-10T14:57:24;10.05;;;9.00;;
13797;SDS011;6970;51.340;3.240;2023-06-10T14:59:52;9.35;;;8.50;;
13797;SDS011;6970;51.340;3.240;2023-06-10T15:02:22;9.70;;;8.80;;
13797;SDS011;6970;51.340;3.240;2023-06-10T15:04:49;9.18;;;8.38;;
13797;SDS011;6970;51.340;3.240;2023-06-10T15:07:17;7.70;;;6.97;;
13797;SDS011;6970;51.340;3.240;2023-06-10T15:09:45;9.85;;;8.95;;
13797;SDS011;6970;51.340;3.240;2023-06-10T15:12:13;10.50;;;9.50;;
13797;SDS011;6970;51.340;3.240;2023-06-10T15:14:40;9.25;;;8.10;;
13797;SDS011;6970;51.340;3.240;2023-06-10T15:17:09;10.52;;;9.35;;
13797;SDS011;6970;51.340;3.240;2023-06-10T15:22:07;9.05;;;8.13;;
13797;SDS011;6970;51.340;3.240;2023-06-10T15:27:06;9.73;;;8.82;;
13797;SDS011;6970;51.340;3.240;2023-06-10T15:34:43;10.90;;;9.07;;
13797;SDS011;6970;51.340;3.240;2023-06-10T15:37:14;9.18;;;8.13;;
13797;SDS011;6970;51.340;3.240;2023-06-10T15:39:41;11.15;;;10.02;;
13797;SDS011;6970;51.340;3.240;2023-06-10T15:42:08;9.88;;;8.50;;
13797;SDS011;6970;51.340;3.240;2023-06-10T15:44:42;10.57;;;8.80;;
13797;SDS011;6970;51.340;3.240;2023-06-10T15:47:12;9.70;;;8.80;;
13797;SDS011;6970;51.340;3.240;2023-06-10T15:49:39;9.82;;;8.77;;
13797;SDS011;6970;51.340;3.240;2023-06-10T15:52:08;9.20;;;8.32;;
13797;SDS011;6970;51.340;3.240;2023-06-10T15:54:38;8.27;;;7.50;;
13797;SDS011;6970;51.340;3.240;2023-06-10T15:57:05;8.43;;;7.40;;
13797;SDS011;6970;51.340;3.240;2023-06-10T15:59:37;8.52;;;7.60;;
13797;SDS011;6970;51.340;3.240;2023-06-10T16:02:05;7.65;;;6.95;;
13797;SDS011;6970;51.340;3.240;2023-06-10T16:07:03;8.60;;;7.50;;
13797;SDS011;6970;51.340;3.240;2023-06-10T16:14:42;8.48;;;7.72;;
13797;SDS011;6970;51.340;3.240;2023-06-10T16:17:10;7.97;;;7.28;;
13797;SDS011;6970;51.340;3.240;2023-06-10T16:19:39;12.95;;;8.88;;
13797;SDS011;6970;51.340;3.240;2023-06-10T16:24:37;12.32;;;8.98;;
13797;SDS011;6970;51.340;3.240;2023-06-10T16:27:10;9.57;;;8.65;;
13797;SDS011;6970;51.340;3.240;2023-06-10T16:32:08;13.02;;;8.63;;
13797;SDS011;6970;51.340;3.240;2023-06-10T16:37:07;10.68;;;7.50;;
13797;SDS011;6970;51.340;3.240;2023-06-10T16:42:06;10.23;;;8.02;;
13797;SDS011;6970;51.340;3.240;2023-06-10T16:44:39;11.82;;;8.00;;
13797;SDS011;6970;51.340;3.240;2023-06-10T16:47:12;9.00;;;7.68;;
13797;SDS011;6970;51.340;3.240;2023-06-10T16:52:10;8.60;;;7.55;;
13797;SDS011;6970;51.340;3.240;2023-06-10T16:54:37;12.30;;;8.18;;
13797;SDS011;6970;51.340;3.240;2023-06-10T16:57:06;9.55;;;7.88;;
13797;SDS011;6970;51.340;3.240;2023-06-10T17:04:35;8.75;;;7.32;;
13797;SDS011;6970;51.340;3.240;2023-06-10T17:07:04;9.00;;;7.10;;
13797;SDS011;6970;51.340;3.240;2023-06-10T17:12:04;9.98;;;7.25;;
13797;SDS011;6970;51.340;3.240;2023-06-10T17:14:32;10.40;;;8.13;;
13797;SDS011;6970;51.340;3.240;2023-06-10T17:17:00;12.68;;;7.78;;
13797;SDS011;6970;51.340;3.240;2023-06-10T17:19:27;11.07;;;7.95;;
13797;SDS011;6970;51.340;3.240;2023-06-10T17:21:57;7.85;;;7.13;;
13797;SDS011;6970;51.340;3.240;2023-06-10T17:24:24;8.20;;;6.80;;
13797;SDS011;6970;51.340;3.240;2023-06-10T17:26:55;10.40;;;7.20;;
13797;SDS011;6970;51.340;3.240;2023-06-10T17:29:23;9.20;;;7.80;;
13797;SDS011;6970;51.340;3.240;2023-06-10T17:31:50;11.68;;;7.70;;
13797;SDS011;6970;51.340;3.240;2023-06-10T17:36:50;10.27;;;7.28;;
13797;SDS011;6970;51.340;3.240;2023-06-10T17:39:20;10.85;;;7.65;;
13797;SDS011;6970;51.340;3.240;2023-06-10T17:41:53;9.27;;;7.28;;
13797;SDS011;6970;51.340;3.240;2023-06-10T17:44:24;13.10;;;7.72;;
13797;SDS011;6970;51.340;3.240;2023-06-10T17:46:53;13.00;;;7.72;;
13797;SDS011;6970;51.340;3.240;2023-06-10T17:49:27;13.80;;;8.35;;
13797;SDS011;6970;51.340;3.240;2023-06-10T17:54:28;8.77;;;7.40;;
13797;SDS011;6970;51.340;3.240;2023-06-10T17:56:55;12.73;;;8.20;;
13797;SDS011;6970;51.340;3.240;2023-06-10T17:59:23;14.35;;;7.85;;
13797;SDS011;6970;51.340;3.240;2023-06-10T18:01:53;9.95;;;7.13;;
13797;SDS011;6970;51.340;3.240;2023-06-10T18:04:21;9.43;;;8.10;;
13797;SDS011;6970;51.340;3.240;2023-06-10T18:06:54;12.32;;;8.27;;
13797;SDS011;6970;51.340;3.240;2023-06-10T18:09:24;11.48;;;7.35;;
13797;SDS011;6970;51.340;3.240;2023-06-10T18:11:52;11.05;;;7.60;;
13797;SDS011;6970;51.340;3.240;2023-06-10T18:16:53;11.82;;;7.68;;
13797;SDS011;6970;51.340;3.240;2023-06-10T18:19:21;11.02;;;7.03;;